Airfield :
LOGIN :

Register | Disclaimer

   EN    FR    IT 

 










Legend :    VFR   Marginal VFR   IFR   Intensive IFR   Very Intensive IFR
Visi :
Ceiling :
>= 8 km
>= 3000ft
5 to 8 km
1000 to 3000 ft
1500m to 5 km
500 to 1000 ft
800 to 1500m
200 to 500 ft
< 800m
< 200 ft
Symbols :   Thunderstorms  Fog  Heavy snow  Heavy precipitations  Wind > 20 kt
SIGMETs :     Misc.  Thunderstorms  Icing  Turbulence  Mountain Waves  Volcanic Ashes






- Airport Elevation : 238 ft
- IATA code : FAB


EGLF - Farnborough

CURRENT METAR :
  • 181150Z AUTO 29005KT 260V320 9999 NCD 05/02 Q1028

EXPIRED METARs :
  • 181120Z AUTO 28006KT 250V310 9999 NCD 05/01 Q1028
  • 181050Z AUTO 29004KT 240V320 9999 NCD 04/01 Q1028
  • 181020Z AUTO 26004KT 230V320 9999 NCD 03/01 Q1027
  • 180950Z AUTO VRB02KT 9999 NCD 01/00 Q1027
  • 180920Z AUTO 20003KT 9999 NCD 00/M01 Q1027

TAF TAF EGLF
Valid from the 18 at 12:00 until the 18 at 20:00 UTC


181058Z 1812/1820 30005KT 9999 FEW040
PROB30 1819/1820 8000
ATIS : +44 09063 800 400 (*282)



MET'MAP, your aeronautical weather chart ! - Copyright ORBIFLY December 2007 - Disclaimer

ORBIFLY MET'MAP TEAM :

Programming & Development : Alexandra Zaïnal
Concept & original design : Baudouin d'Aumeries
Assistance for programming : Marc-Olivier Méhu
Technical & hardware support : Manuel Goepfert

Contact : metmap@orbifly.com




SOURCES & CREDITS :

   NOAA